Time;durP1;ratioP1;P1;durP2;ratioP2;P2;SDS_P1;SDS_P2;PMS_P1;PMS_P2;Temp;Humidity;BMP_temperature;BMP_pressure;BME280_temperature;BME280_humidity;BME280_pressure;Samples;Min_cycle;Max_cycle;Signal;HPM_P1;HPM_P2
2023/02/26 00:01:39;;;;;;;6.55;2.90;;;-0.70;99.90;;;;;;5088911;28;20071;-68
2023/02/26 00:04:08;;;;;;;9.18;3.03;;;-0.70;99.90;;;;;;5088277;28;20078;-67
2023/02/26 00:06:37;;;;;;;5.55;2.70;;;-0.80;99.90;;;;;;5088207;28;20048;-70
2023/02/26 00:09:05;;;;;;;6.80;3.00;;;-0.80;99.90;;;;;;5087721;28;20075;-68
2023/02/26 00:11:33;;;;;;;6.70;2.63;;;-0.80;99.90;;;;;;5087564;28;20116;-68
2023/02/26 00:14:01;;;;;;;10.07;3.25;;;-0.90;99.90;;;;;;5091055;28;20124;-67
2023/02/26 00:16:31;;;;;;;6.80;3.47;;;-0.90;99.90;;;;;;5102916;28;20047;-68
2023/02/26 00:19:02;;;;;;;6.60;3.10;;;-0.90;99.90;;;;;;5088266;28;20537;-68
2023/02/26 00:21:31;;;;;;;5.57;3.07;;;-1.00;99.90;;;;;;5087487;28;20071;-69
2023/02/26 00:24:00;;;;;;;6.95;3.17;;;-0.90;99.90;;;;;;5094479;28;20051;-69
2023/02/26 00:26:30;;;;;;;9.00;3.05;;;-1.00;99.90;;;;;;5109478;28;20051;-69
2023/02/26 00:28:59;;;;;;;7.22;3.42;;;-1.00;99.90;;;;;;5107864;28;20119;-69
2023/02/26 00:31:27;;;;;;;8.98;4.15;;;-1.00;99.90;;;;;;5106965;28;20044;-68
2023/02/26 00:33:56;;;;;;;5.93;3.00;;;-1.10;99.90;;;;;;5109146;28;20047;-68
2023/02/26 00:36:38;;;;;;;6.80;3.40;;;-1.10;99.90;;;;;;5088807;28;20038;-70
2023/02/26 00:39:25;;;;;;;5.40;3.20;;;-1.20;99.90;;;;;;5088393;28;20119;-69
2023/02/26 00:41:53;;;;;;;6.05;3.60;;;-1.20;99.90;;;;;;5096805;28;20549;-68
2023/02/26 00:44:21;;;;;;;6.18;2.92;;;-1.20;99.90;;;;;;5100376;28;20052;-68
2023/02/26 00:46:53;;;;;;;11.18;3.25;;;-1.10;99.90;;;;;;5088199;28;20410;-69
2023/02/26 00:49:45;;;;;;;10.18;3.30;;;-1.10;99.90;;;;;;5083925;28;20044;-70
2023/02/26 00:52:28;;;;;;;8.00;3.80;;;-1.10;99.90;;;;;;5088319;28;20044;-69
2023/02/26 00:54:56;;;;;;;10.85;3.70;;;-1.10;99.90;;;;;;5087006;28;20119;-69
2023/02/26 00:57:24;;;;;;;6.38;3.60;;;-1.20;99.90;;;;;;5089228;28;20060;-68
2023/02/26 00:59:52;;;;;;;10.05;4.95;;;-1.20;99.90;;;;;;5103597;28;20061;-69
2023/02/26 01:02:21;;;;;;;7.70;3.60;;;-1.20;99.90;;;;;;5116709;28;20704;-68
2023/02/26 01:04:51;;;;;;;5.63;3.35;;;-1.30;99.90;;;;;;5082333;28;20161;-69
2023/02/26 01:07:23;;;;;;;6.07;3.33;;;-1.30;99.90;;;;;;5092475;28;20089;-69
2023/02/26 01:09:55;;;;;;;6.30;3.38;;;-1.40;99.90;;;;;;5094224;28;20158;-69
2023/02/26 01:12:25;;;;;;;8.50;3.38;;;-1.40;99.90;;;;;;5078560;28;20039;-69
2023/02/26 01:14:54;;;;;;;5.90;2.88;;;-1.40;99.90;;;;;;5111837;28;20091;-69
2023/02/26 01:17:21;;;;;;;9.40;3.45;;;-1.40;99.90;;;;;;5102002;28;20868;-68
2023/02/26 01:20:04;;;;;;;8.20;3.80;;;-1.50;99.90;;;;;;5086156;28;20044;-69
2023/02/26 01:22:54;;;;;;;10.02;3.13;;;-1.60;99.90;;;;;;5086206;28;20040;-70
2023/02/26 01:25:31;;;;;;;10.25;3.50;;;-1.60;99.90;;;;;;5087016;28;20040;-67
2023/02/26 01:27:58;;;;;;;5.10;3.42;;;-1.60;99.90;;;;;;5089114;28;20130;-70
2023/02/26 01:30:26;;;;;;;7.00;3.42;;;-1.70;99.90;;;;;;5086784;28;20124;-67
2023/02/26 01:33:00;;;;;;;8.48;4.10;;;-1.70;99.90;;;;;;5088464;28;20415;-68
2023/02/26 01:35:37;;;;;;;7.85;3.38;;;-1.70;99.90;;;;;;5087182;28;20052;-68
2023/02/26 01:38:27;;;;;;;6.40;3.65;;;-1.70;99.90;;;;;;5087320;28;20065;-69
2023/02/26 01:41:01;;;;;;;9.45;3.45;;;-1.80;99.90;;;;;;5086826;28;20508;-69
2023/02/26 01:43:41;;;;;;;9.05;3.83;;;-1.80;99.90;;;;;;5089380;28;20047;-68
2023/02/26 01:46:35;;;;;;;6.53;3.55;;;-1.80;99.90;;;;;;5095166;28;20413;-69
2023/02/26 01:49:05;;;;;;;7.25;3.42;;;-1.80;99.90;;;;;;5090879;28;20481;-68
2023/02/26 01:51:43;;;;;;;5.15;3.05;;;-1.80;99.90;;;;;;5088010;28;20471;-68
2023/02/26 01:54:12;;;;;;;6.40;3.15;;;-1.90;99.90;;;;;;5093108;28;20063;-68
2023/02/26 01:56:41;;;;;;;5.57;3.10;;;-1.90;99.90;;;;;;5074406;28;20578;-68
2023/02/26 01:59:13;;;;;;;8.43;2.80;;;-1.90;99.90;;;;;;5088727;28;20067;-69
2023/02/26 02:01:40;;;;;;;7.32;3.42;;;-1.90;99.90;;;;;;5088747;28;20086;-68
2023/02/26 02:04:15;;;;;;;5.88;2.97;;;-1.90;99.90;;;;;;5087352;28;20123;-69
2023/02/26 02:06:44;;;;;;;8.48;3.30;;;-2.00;99.90;;;;;;5087072;28;20044;-68
2023/02/26 02:09:12;;;;;;;5.93;3.03;;;-2.00;99.90;;;;;;5091729;28;20498;-68
2023/02/26 02:11:56;;;;;;;7.72;3.17;;;-2.00;99.90;;;;;;5094526;28;20064;-69
2023/02/26 02:14:55;;;;;;;9.55;4.13;;;-2.00;99.90;;;;;;5087368;28;20048;-68
2023/02/26 02:17:25;;;;;;;5.32;3.08;;;-2.10;99.90;;;;;;5101978;28;20032;-69
2023/02/26 02:20:22;;;;;;;6.28;3.42;;;-2.20;99.90;;;;;;5091729;28;20040;-68
2023/02/26 02:22:58;;;;;;;8.18;3.80;;;-2.20;99.90;;;;;;5091915;28;20036;-69
2023/02/26 02:26:06;;;;;;;8.15;3.90;;;-2.20;99.90;;;;;;5092074;28;20491;-69
2023/02/26 02:28:40;;;;;;;8.43;3.58;;;-2.20;99.90;;;;;;5107444;28;20542;-69
2023/02/26 02:31:32;;;;;;;6.38;3.60;;;-2.20;99.90;;;;;;5089986;28;20105;-69
2023/02/26 02:34:04;;;;;;;8.65;3.90;;;-2.30;99.90;;;;;;5085444;28;20067;-68
2023/02/26 02:36:52;;;;;;;7.40;3.30;;;-2.30;99.90;;;;;;5094077;28;20103;-68
2023/02/26 02:39:46;;;;;;;11.38;3.85;;;-2.20;99.90;;;;;;5091359;28;20390;-68
2023/02/26 02:42:29;;;;;;;11.93;3.00;;;-2.30;99.90;;;;;;5084683;28;20090;-67
2023/02/26 02:45:22;;;;;;;7.53;3.72;;;-2.20;99.90;;;;;;5090714;28;20595;-69
2023/02/26 02:48:01;;;;;;;5.72;2.80;;;-2.20;99.90;;;;;;5091337;28;20117;-69
2023/02/26 02:50:35;;;;;;;8.02;2.80;;;-2.10;99.90;;;;;;5092009;28;20422;-68
2023/02/26 02:53:09;;;;;;;4.53;2.67;;;-2.10;99.90;;;;;;5089445;28;20044;-68
2023/02/26 02:55:47;;;;;;;7.00;2.83;;;-2.10;99.90;;;;;;5094623;28;20047;-68
2023/02/26 02:58:19;;;;;;;4.75;2.70;;;-2.20;99.90;;;;;;5092617;28;20067;-67
2023/02/26 03:00:53;;;;;;;8.77;2.70;;;-2.20;99.90;;;;;;5096071;28;20048;-67
2023/02/26 03:03:47;;;;;;;6.82;2.85;;;-2.20;99.90;;;;;;5090424;28;20359;-69
2023/02/26 03:06:16;;;;;;;6.35;2.90;;;-2.10;99.90;;;;;;5090280;28;20036;-69
2023/02/26 03:08:46;;;;;;;4.65;2.60;;;-2.10;99.90;;;;;;5091877;28;20040;-69
2023/02/26 03:11:15;;;;;;;6.22;2.60;;;-2.00;99.90;;;;;;5088992;28;20554;-70
2023/02/26 03:13:44;;;;;;;7.45;2.70;;;-2.00;99.90;;;;;;5089495;28;20036;-69
2023/02/26 03:16:53;;;;;;;5.55;2.75;;;-2.00;99.90;;;;;;5079941;28;20127;-69
2023/02/26 03:19:43;;;;;;;7.38;2.58;;;-2.10;99.90;;;;;;5071920;28;20498;-67
2023/02/26 03:22:15;;;;;;;8.05;2.60;;;-2.20;99.90;;;;;;5090096;28;20044;-70
2023/02/26 03:25:16;;;;;;;5.82;2.90;;;-2.30;99.90;;;;;;5070709;28;20163;-68
2023/02/26 03:28:02;;;;;;;7.53;2.90;;;-2.30;99.90;;;;;;5071031;28;20485;-69
2023/02/26 03:30:54;;;;;;;7.25;2.53;;;-2.30;99.90;;;;;;5072671;28;20064;-68
2023/02/26 03:33:33;;;;;;;10.88;5.28;;;-2.40;99.90;;;;;;5092084;28;20035;-68
2023/02/26 03:36:08;;;;;;;10.98;2.80;;;-2.40;99.90;;;;;;5095998;28;20040;-69
2023/02/26 03:38:56;;;;;;;6.43;2.40;;;-2.50;99.90;;;;;;5088083;28;20043;-68
2023/02/26 03:41:40;;;;;;;3.75;2.45;;;-2.60;99.90;;;;;;5081574;28;20065;-70
2023/02/26 03:44:42;;;;;;;7.35;2.70;;;-2.60;99.90;;;;;;5086577;28;20056;-68
2023/02/26 03:47:13;;;;;;;4.80;2.77;;;-2.60;99.90;;;;;;5088363;28;22042;-68
2023/02/26 03:49:48;;;;;;;5.72;2.80;;;-2.60;99.90;;;;;;5095575;28;20286;-69
2023/02/26 03:52:16;;;;;;;4.90;3.00;;;-2.70;99.90;;;;;;5088210;28;20120;-69
2023/02/26 03:55:32;;;;;;;4.00;2.53;;;-2.70;99.90;;;;;;5043659;28;20886;-67
2023/02/26 03:58:22;;;;;;;7.80;2.72;;;-2.70;99.90;;;;;;5064873;28;20122;-68
2023/02/26 04:01:08;;;;;;;7.20;2.67;;;-2.60;99.90;;;;;;5035775;28;20051;-68
2023/02/26 04:03:49;;;;;;;7.60;2.70;;;-2.60;99.90;;;;;;5037240;28;20045;-69
2023/02/26 04:06:19;;;;;;;7.10;3.13;;;-2.60;99.90;;;;;;5045724;28;20127;-68
2023/02/26 04:08:47;;;;;;;6.28;3.47;;;-2.60;99.90;;;;;;5014323;28;20124;-68
2023/02/26 04:11:17;;;;;;;8.18;3.15;;;-2.50;99.90;;;;;;5045834;28;20045;-68
2023/02/26 04:13:46;;;;;;;4.90;2.58;;;-2.50;99.90;;;;;;5049518;28;20064;-69
2023/02/26 04:16:14;;;;;;;6.95;2.92;;;-2.40;99.90;;;;;;5047438;28;20523;-68
2023/02/26 04:18:41;;;;;;;5.43;2.53;;;-2.20;99.90;;;;;;5047957;28;20049;-68
2023/02/26 04:21:14;;;;;;;7.60;2.38;;;-2.10;99.90;;;;;;5047492;28;20048;-68
2023/02/26 04:23:42;;;;;;;7.50;2.78;;;-2.00;99.90;;;;;;5048835;28;20048;-68
2023/02/26 04:26:09;;;;;;;6.43;2.35;;;-1.90;99.90;;;;;;5048023;28;20502;-69
2023/02/26 04:28:39;;;;;;;8.20;2.90;;;-1.80;99.90;;;;;;5057559;28;20477;-68
2023/02/26 04:31:09;;;;;;;7.65;2.60;;;-1.80;99.90;;;;;;5103586;28;20067;-69
2023/02/26 04:33:37;;;;;;;5.43;2.60;;;-1.70;99.90;;;;;;5088630;28;20032;-69
2023/02/26 04:36:05;;;;;;;7.88;2.80;;;-1.70;99.90;;;;;;5086731;28;20635;-68
2023/02/26 04:38:33;;;;;;;4.68;2.70;;;-1.60;99.90;;;;;;5092336;28;20101;-69
2023/02/26 04:41:01;;;;;;;7.68;2.40;;;-1.60;99.90;;;;;;5104798;28;20294;-68
2023/02/26 04:43:28;;;;;;;4.90;2.20;;;-1.50;99.90;;;;;;5089404;28;20102;-69
2023/02/26 04:46:17;;;;;;;6.13;2.40;;;-1.40;99.90;;;;;;5087290;28;20493;-68
2023/02/26 04:48:44;;;;;;;3.70;2.22;;;-1.40;99.90;;;;;;5087176;28;20266;-69
2023/02/26 04:51:12;;;;;;;4.80;2.50;;;-1.40;99.90;;;;;;5087355;28;20094;-69
2023/02/26 04:53:39;;;;;;;5.32;2.38;;;-1.40;99.90;;;;;;5073245;28;20044;-69
2023/02/26 04:56:06;;;;;;;5.20;2.40;;;-1.40;99.90;;;;;;5106488;28;20040;-69
2023/02/26 04:58:34;;;;;;;4.15;2.47;;;-1.30;99.90;;;;;;5088001;28;20172;-67
2023/02/26 05:01:06;;;;;;;5.55;2.42;;;-1.40;99.90;;;;;;5069815;28;20051;-69
2023/02/26 05:03:34;;;;;;;6.15;2.28;;;-1.30;99.90;;;;;;5069711;28;20071;-70
2023/02/26 05:06:01;;;;;;;5.15;2.45;;;-1.30;99.90;;;;;;5098509;28;20063;-68
2023/02/26 05:08:28;;;;;;;3.45;2.20;;;-1.30;99.90;;;;;;5086436;28;20122;-68
2023/02/26 05:10:56;;;;;;;10.50;3.03;;;-1.30;99.90;;;;;;5087321;28;20071;-69
2023/02/26 05:13:23;;;;;;;6.68;2.60;;;-1.30;99.90;;;;;;5087439;28;20048;-69
2023/02/26 05:15:53;;;;;;;5.50;2.28;;;-1.30;99.90;;;;;;5086672;28;20693;-69
2023/02/26 05:18:22;;;;;;;4.90;2.27;;;-1.30;99.90;;;;;;5085800;28;20047;-69
2023/02/26 05:20:53;;;;;;;9.70;2.33;;;-1.30;99.90;;;;;;5085890;28;20036;-69
2023/02/26 05:23:21;;;;;;;4.32;2.22;;;-1.30;99.90;;;;;;5085750;28;20040;-70
2023/02/26 05:25:48;;;;;;;5.72;2.80;;;-1.30;99.90;;;;;;5085578;28;20043;-69
2023/02/26 05:28:17;;;;;;;4.90;2.30;;;-1.40;99.90;;;;;;5092712;28;20070;-71
2023/02/26 05:30:44;;;;;;;4.10;2.30;;;-1.40;99.90;;;;;;5095556;28;20039;-68
2023/02/26 05:33:11;;;;;;;6.47;2.45;;;-1.30;99.90;;;;;;5089578;28;20059;-66
2023/02/26 05:35:39;;;;;;;8.02;2.95;;;-1.30;99.90;;;;;;5108323;28;20047;-67
2023/02/26 05:38:06;;;;;;;4.53;2.38;;;-1.30;99.90;;;;;;5108493;28;20472;-66
2023/02/26 05:40:33;;;;;;;4.43;2.15;;;-1.20;99.90;;;;;;5098237;28;20098;-66
2023/02/26 05:43:01;;;;;;;5.18;2.60;;;-1.20;99.90;;;;;;5096472;28;20518;-68
2023/02/26 05:45:28;;;;;;;6.93;2.60;;;-1.20;99.90;;;;;;5099174;28;20119;-68
2023/02/26 05:47:55;;;;;;;5.28;2.53;;;-1.20;99.90;;;;;;5094103;28;20051;-67
2023/02/26 05:50:23;;;;;;;5.82;2.60;;;-1.20;99.90;;;;;;5094048;28;20115;-67
2023/02/26 05:52:50;;;;;;;5.78;2.30;;;-1.10;99.90;;;;;;5098597;28;20044;-66
2023/02/26 05:55:18;;;;;;;5.45;2.33;;;-1.10;99.90;;;;;;5091569;28;20051;-66
2023/02/26 05:57:45;;;;;;;5.22;2.47;;;-1.10;99.90;;;;;;5091471;28;20809;-66
2023/02/26 06:00:13;;;;;;;4.13;2.47;;;-1.00;99.90;;;;;;5091995;28;20114;-67
2023/02/26 06:02:40;;;;;;;5.13;2.88;;;-1.00;99.90;;;;;;5085574;28;20062;-67
2023/02/26 06:05:08;;;;;;;5.10;2.28;;;-1.00;99.90;;;;;;5108802;28;20473;-69
2023/02/26 06:07:36;;;;;;;6.78;2.20;;;-1.00;99.90;;;;;;5101030;28;20426;-71
2023/02/26 06:10:03;;;;;;;4.22;2.10;;;-1.00;99.90;;;;;;5092119;28;20067;-70
2023/02/26 06:12:31;;;;;;;6.60;2.20;;;-1.00;99.90;;;;;;5099151;28;20047;-69
2023/02/26 06:14:58;;;;;;;7.15;2.85;;;-1.00;99.90;;;;;;5111811;28;20042;-70
2023/02/26 06:17:25;;;;;;;6.00;2.50;;;-1.10;99.90;;;;;;5104599;28;20051;-68
2023/02/26 06:19:53;;;;;;;6.43;2.45;;;-1.10;99.90;;;;;;5101220;28;20819;-68
2023/02/26 06:22:20;;;;;;;3.53;2.00;;;-1.10;99.90;;;;;;5094514;28;20081;-69
2023/02/26 06:24:47;;;;;;;7.10;2.15;;;-1.00;99.90;;;;;;5092559;28;20044;-69
2023/02/26 06:27:15;;;;;;;5.60;2.50;;;-1.00;99.90;;;;;;5090544;28;20106;-70
2023/02/26 06:29:42;;;;;;;6.53;2.58;;;-1.00;99.90;;;;;;5105523;28;20443;-69
2023/02/26 06:32:09;;;;;;;5.88;2.33;;;-1.00;99.90;;;;;;5090730;28;20103;-69
2023/02/26 06:34:37;;;;;;;6.30;2.42;;;-1.00;99.90;;;;;;5090495;28;20601;-69
2023/02/26 06:37:04;;;;;;;8.13;2.22;;;-1.00;99.90;;;;;;5090743;28;20051;-70
2023/02/26 06:39:32;;;;;;;5.45;2.53;;;-0.90;99.90;;;;;;5091617;28;20036;-69
2023/02/26 06:41:59;;;;;;;6.45;2.80;;;-0.90;99.90;;;;;;5084589;28;20052;-69
2023/02/26 06:44:26;;;;;;;5.80;2.40;;;-0.90;99.90;;;;;;5100388;28;20133;-71
2023/02/26 06:46:54;;;;;;;6.88;2.75;;;-0.90;99.90;;;;;;5104536;28;20039;-71
2023/02/26 06:49:21;;;;;;;6.68;2.70;;;-0.90;99.90;;;;;;5105709;28;20139;-70
2023/02/26 06:51:48;;;;;;;6.45;2.80;;;-0.90;99.90;;;;;;5092728;28;20097;-69
2023/02/26 06:54:16;;;;;;;4.07;2.55;;;-0.80;99.90;;;;;;5092255;28;20406;-70
2023/02/26 06:56:43;;;;;;;8.73;2.53;;;-0.70;99.90;;;;;;5091366;28;20062;-71
2023/02/26 06:59:10;;;;;;;7.85;2.78;;;-0.70;99.90;;;;;;5068708;28;20072;-70
2023/02/26 07:01:38;;;;;;;5.50;2.40;;;-0.60;99.90;;;;;;5087649;28;20036;-69
2023/02/26 07:04:06;;;;;;;4.30;2.47;;;-0.70;99.90;;;;;;5087093;28;20445;-70
2023/02/26 07:06:33;;;;;;;5.78;2.60;;;-0.60;99.90;;;;;;5086546;28;20044;-70
2023/02/26 07:09:00;;;;;;;4.60;2.13;;;-0.60;99.90;;;;;;5094287;28;20059;-70
2023/02/26 07:11:28;;;;;;;6.57;2.40;;;-0.60;99.90;;;;;;5093221;28;20047;-70
2023/02/26 07:13:55;;;;;;;4.40;2.60;;;-0.70;99.90;;;;;;5085523;28;20089;-70
2023/02/26 07:16:22;;;;;;;5.53;2.35;;;-0.70;99.90;;;;;;5086589;28;20510;-70
2023/02/26 07:18:50;;;;;;;4.10;2.28;;;-0.80;99.90;;;;;;5104022;28;20327;-69
2023/02/26 07:21:17;;;;;;;6.20;2.45;;;-0.80;99.90;;;;;;5092550;28;20528;-68
2023/02/26 07:23:45;;;;;;;6.60;2.72;;;-0.80;99.90;;;;;;5091576;28;20036;-68
2023/02/26 07:26:12;;;;;;;9.05;2.60;;;-0.70;99.90;;;;;;5087776;28;20055;-68
2023/02/26 07:28:39;;;;;;;5.25;2.53;;;-0.60;99.90;;;;;;5089358;28;20070;-69
2023/02/26 07:31:07;;;;;;;7.82;2.55;;;-0.50;99.90;;;;;;5088844;28;20052;-69
2023/02/26 07:33:34;;;;;;;5.85;2.63;;;-0.40;99.90;;;;;;5089804;28;20036;-66
2023/02/26 07:36:01;;;;;;;5.28;2.40;;;-0.30;99.90;;;;;;5091813;28;20113;-65
2023/02/26 07:38:29;;;;;;;4.85;2.33;;;-0.10;99.90;;;;;;5098261;28;20466;-65
2023/02/26 07:40:56;;;;;;;5.82;3.00;;;-0.10;99.90;;;;;;5091270;28;20075;-65
2023/02/26 07:43:24;;;;;;;8.23;2.53;;;-0.10;99.90;;;;;;5097471;28;20411;-65
2023/02/26 07:45:52;;;;;;;4.47;2.35;;;0.10;99.90;;;;;;5098395;28;20053;-66
2023/02/26 07:48:20;;;;;;;5.22;2.40;;;0.20;99.90;;;;;;5101488;28;20540;-65
2023/02/26 07:50:51;;;;;;;5.32;2.33;;;0.30;99.90;;;;;;5087684;28;20399;-67
2023/02/26 07:53:19;;;;;;;5.13;2.50;;;0.40;99.90;;;;;;5086449;28;20506;-68
2023/02/26 07:55:46;;;;;;;4.00;2.53;;;0.50;99.90;;;;;;5094073;28;20150;-64
2023/02/26 07:58:14;;;;;;;6.07;2.95;;;0.60;99.90;;;;;;5090985;28;20078;-65
2023/02/26 08:00:41;;;;;;;4.50;2.55;;;0.70;99.90;;;;;;5099322;28;20042;-65
2023/02/26 08:03:08;;;;;;;4.85;2.58;;;0.90;99.90;;;;;;5099174;28;20391;-64
2023/02/26 08:05:36;;;;;;;5.57;2.58;;;0.90;99.90;;;;;;5090061;28;20047;-65
2023/02/26 08:08:03;;;;;;;4.65;2.42;;;0.90;99.90;;;;;;5088507;28;20083;-65
2023/02/26 08:10:31;;;;;;;6.28;2.90;;;0.90;99.90;;;;;;5088897;28;20036;-64
2023/02/26 08:12:58;;;;;;;6.75;3.00;;;1.10;99.90;;;;;;5090649;28;20170;-64
2023/02/26 08:15:25;;;;;;;4.75;2.80;;;1.20;99.90;;;;;;5089175;28;20036;-66
2023/02/26 08:17:53;;;;;;;6.75;2.72;;;1.20;99.90;;;;;;5099559;28;20036;-64
2023/02/26 08:20:23;;;;;;;6.13;2.90;;;1.30;99.90;;;;;;5109058;28;20028;-65
2023/02/26 08:22:51;;;;;;;5.43;3.10;;;1.20;99.90;;;;;;5089871;28;20036;-65
2023/02/26 08:25:18;;;;;;;6.45;2.75;;;1.30;99.90;;;;;;5091848;28;20073;-65
2023/02/26 08:27:46;;;;;;;7.55;2.90;;;1.50;99.90;;;;;;5072244;28;20040;-65
2023/02/26 08:30:13;;;;;;;5.57;2.97;;;1.50;99.90;;;;;;5088946;28;20044;-66
2023/02/26 08:32:42;;;;;;;7.68;2.90;;;1.50;99.90;;;;;;5098902;28;20467;-64
2023/02/26 08:35:09;;;;;;;5.25;2.80;;;1.60;99.90;;;;;;5102119;28;20054;-65
2023/02/26 08:37:37;;;;;;;6.20;3.03;;;1.50;99.90;;;;;;5087791;28;20039;-64
2023/02/26 08:40:10;;;;;;;4.10;2.45;;;1.60;99.90;;;;;;5088701;28;20039;-66
2023/02/26 08:42:40;;;;;;;4.85;2.95;;;1.60;99.90;;;;;;5094509;28;20565;-64
2023/02/26 08:45:08;;;;;;;6.05;2.92;;;1.60;99.90;;;;;;5088309;28;20118;-64
2023/02/26 08:47:36;;;;;;;6.45;3.03;;;1.70;99.90;;;;;;5091947;28;20049;-64
2023/02/26 08:50:14;;;;;;;7.15;3.85;;;1.70;99.90;;;;;;5089398;28;20050;-64
2023/02/26 08:52:42;;;;;;;3.78;2.40;;;1.90;99.90;;;;;;5087414;28;20052;-65
2023/02/26 08:55:09;;;;;;;4.35;2.30;;;1.90;99.90;;;;;;5092834;28;20120;-65
2023/02/26 08:57:37;;;;;;;3.53;2.40;;;1.90;99.90;;;;;;5089727;28;20048;-63
2023/02/26 09:00:09;;;;;;;5.85;2.58;;;1.90;99.90;;;;;;5088108;28;20583;-65
2023/02/26 09:02:37;;;;;;;4.35;2.78;;;2.10;99.90;;;;;;5091650;28;20048;-63
2023/02/26 09:05:05;;;;;;;5.00;2.35;;;2.30;99.90;;;;;;5091981;28;20430;-64
2023/02/26 09:07:32;;;;;;;5.63;3.40;;;2.40;99.90;;;;;;5104915;28;20403;-64
2023/02/26 09:09:59;;;;;;;7.07;3.60;;;2.40;99.90;;;;;;5098217;28;20051;-63
2023/02/26 09:12:26;;;;;;;13.30;5.57;;;2.60;99.90;;;;;;5088815;28;20048;-63
2023/02/26 09:14:54;;;;;;;7.30;3.65;;;2.80;99.90;;;;;;5089252;28;20053;-64
2023/02/26 09:17:21;;;;;;;17.75;9.38;;;2.90;99.90;;;;;;5089820;28;20032;-65
2023/02/26 09:19:48;;;;;;;14.35;7.03;;;2.90;99.90;;;;;;5087602;28;20059;-63
2023/02/26 09:22:16;;;;;;;5.45;3.20;;;3.00;99.90;;;;;;5090687;28;20047;-63
2023/02/26 09:24:43;;;;;;;4.90;2.38;;;3.10;99.90;;;;;;5086470;28;20039;-63
2023/02/26 09:27:10;;;;;;;3.50;2.50;;;3.20;99.90;;;;;;5085549;28;20557;-64
2023/02/26 09:29:38;;;;;;;3.55;2.33;;;3.60;99.90;;;;;;5086053;28;20121;-62
2023/02/26 09:32:07;;;;;;;7.50;2.30;;;3.80;99.90;;;;;;5086168;28;20489;-63
2023/02/26 09:34:35;;;;;;;6.10;2.40;;;4.00;99.90;;;;;;5087179;28;20048;-63
2023/02/26 09:37:04;;;;;;;3.55;2.30;;;4.20;99.90;;;;;;5087383;28;20048;-65
2023/02/26 09:39:31;;;;;;;3.17;2.10;;;4.40;99.90;;;;;;5087437;28;20040;-61
2023/02/26 09:42:07;;;;;;;3.33;2.30;;;4.60;99.90;;;;;;5092852;28;20472;-62
2023/02/26 09:44:37;;;;;;;4.00;2.55;;;4.60;99.90;;;;;;5090873;28;20036;-63
2023/02/26 09:47:20;;;;;;;3.05;2.33;;;4.70;99.90;;;;;;5085879;28;20570;-63
2023/02/26 09:49:55;;;;;;;3.55;2.35;;;4.80;99.90;;;;;;5087420;28;20043;-62
2023/02/26 09:52:40;;;;;;;2.95;2.17;;;4.70;99.90;;;;;;5085073;28;20119;-63
2023/02/26 09:55:16;;;;;;;3.85;2.70;;;4.70;99.90;;;;;;5090572;28;20044;-63
2023/02/26 09:57:46;;;;;;;11.10;5.72;;;4.70;99.90;;;;;;5086121;28;20094;-62
2023/02/26 10:00:46;;;;;;;4.88;3.10;;;4.60;99.90;;;;;;5088632;28;20056;-61
2023/02/26 10:03:28;;;;;;;3.35;2.40;;;4.30;99.90;;;;;;5089070;28;20038;-63
2023/02/26 10:06:20;;;;;;;6.13;2.90;;;4.20;99.90;;;;;;5089078;28;20470;-61
2023/02/26 10:09:07;;;;;;;2.78;2.30;;;4.10;99.90;;;;;;5088803;28;20048;-62
2023/02/26 10:12:09;;;;;;;3.75;2.45;;;4.20;99.90;;;;;;5087863;28;20380;-63
2023/02/26 10:15:03;;;;;;;3.30;2.45;;;4.30;99.90;;;;;;5088218;28;20230;-62
2023/02/26 10:17:51;;;;;;;7.35;3.53;;;4.50;99.90;;;;;;5095101;28;20044;-61
2023/02/26 10:20:45;;;;;;;6.45;3.30;;;4.30;99.90;;;;;;5100291;28;20077;-62
2023/02/26 10:23:40;;;;;;;6.75;3.00;;;4.40;99.90;;;;;;5088479;28;20097;-63
2023/02/26 10:26:16;;;;;;;7.20;3.20;;;4.40;99.90;;;;;;5088035;28;20044;-64
2023/02/26 10:28:49;;;;;;;5.28;3.78;;;4.30;99.90;;;;;;5088551;28;20382;-62
2023/02/26 10:31:24;;;;;;;6.63;2.78;;;4.30;99.90;;;;;;5087323;28;20385;-63
2023/02/26 10:34:13;;;;;;;5.00;2.42;;;4.30;99.90;;;;;;5091327;28;20071;-61
2023/02/26 10:37:07;;;;;;;4.13;2.70;;;4.30;99.90;;;;;;5094971;28;20040;-62
2023/02/26 10:39:54;;;;;;;4.82;3.05;;;4.00;99.90;;;;;;5091971;28;20147;-62
2023/02/26 10:42:29;;;;;;;5.63;3.10;;;3.80;99.90;;;;;;5090736;28;20127;-60
2023/02/26 10:45:05;;;;;;;4.10;2.75;;;3.80;99.90;;;;;;5109728;28;20051;-63
2023/02/26 10:47:58;;;;;;;4.53;3.00;;;3.80;99.90;;;;;;5091844;28;20039;-62
2023/02/26 10:50:26;;;;;;;4.28;3.08;;;4.10;99.90;;;;;;5090568;28;20135;-61
2023/02/26 10:52:54;;;;;;;13.30;5.03;;;4.30;99.90;;;;;;5089996;28;20054;-62
2023/02/26 10:55:42;;;;;;;5.00;2.95;;;4.80;99.90;;;;;;5103353;28;20118;-63
2023/02/26 10:58:22;;;;;;;6.22;2.50;;;5.20;99.90;;;;;;5091208;28;20458;-61
2023/02/26 11:00:54;;;;;;;6.45;4.03;;;5.50;99.90;;;;;;5090748;28;20479;-62
2023/02/26 11:03:41;;;;;;;7.18;3.00;;;5.20;99.90;;;;;;5102505;28;20042;-64
2023/02/26 11:06:14;;;;;;;3.63;2.65;;;5.00;99.90;;;;;;5089477;28;20055;-63
2023/02/26 11:08:44;;;;;;;3.80;2.50;;;4.80;99.90;;;;;;5090068;28;20060;-66
2023/02/26 11:11:54;;;;;;;6.22;2.78;;;4.50;99.90;;;;;;5089758;28;20088;-62
2023/02/26 11:14:22;;;;;;;4.18;2.80;;;4.50;99.90;;;;;;5079701;28;20359;-62
2023/02/26 11:16:56;;;;;;;5.72;2.80;;;4.50;99.90;;;;;;5093339;28;20506;-63
2023/02/26 11:19:30;;;;;;;8.75;2.85;;;4.60;99.90;;;;;;5110713;28;20044;-62
2023/02/26 11:22:01;;;;;;;7.40;3.10;;;4.90;99.90;;;;;;5100017;28;20044;-61
2023/02/26 11:24:35;;;;;;;3.50;2.60;;;5.10;99.90;;;;;;5091683;28;20034;-62
2023/02/26 11:27:07;;;;;;;3.20;2.72;;;5.20;99.90;;;;;;5095834;28;20054;-62
2023/02/26 11:29:40;;;;;;;3.63;2.50;;;5.50;99.90;;;;;;5097867;28;20048;-61
2023/02/26 11:32:20;;;;;;;3.55;2.72;;;5.80;99.90;;;;;;5108268;28;20042;-62
2023/02/26 11:34:49;;;;;;;4.03;2.95;;;6.00;99.90;;;;;;5106369;28;20048;-62
2023/02/26 11:37:22;;;;;;;3.75;2.88;;;6.00;99.90;;;;;;5111159;28;20123;-62
2023/02/26 11:40:09;;;;;;;5.38;3.00;;;6.00;99.90;;;;;;5109803;28;20467;-62
2023/02/26 11:42:47;;;;;;;6.18;3.63;;;6.40;99.90;;;;;;5105424;28;20128;-62
2023/02/26 11:45:17;;;;;;;6.70;3.03;;;6.70;99.90;;;;;;5090680;28;20593;-61
2023/02/26 11:47:47;;;;;;;4.97;3.10;;;6.80;99.90;;;;;;5101710;28;20503;-62
2023/02/26 11:50:21;;;;;;;5.15;2.95;;;6.80;99.90;;;;;;5089923;28;20055;-60
2023/02/26 11:53:04;;;;;;;5.30;3.10;;;6.60;99.90;;;;;;5089168;28;20444;-62
2023/02/26 11:55:35;;;;;;;3.65;2.90;;;6.80;99.90;;;;;;5105358;28;20054;-61
2023/02/26 11:58:15;;;;;;;5.40;3.20;;;7.10;99.90;;;;;;5089560;28;20486;-62
2023/02/26 12:00:45;;;;;;;4.75;2.90;;;7.40;99.90;;;;;;5087523;28;20052;-61
2023/02/26 12:03:27;;;;;;;3.42;2.72;;;7.60;99.90;;;;;;5100680;28;20445;-63
2023/02/26 12:05:57;;;;;;;3.47;2.92;;;7.80;99.90;;;;;;5103876;28;20367;-63
2023/02/26 12:08:38;;;;;;;4.38;3.25;;;7.40;99.90;;;;;;5090309;28;20047;-62
2023/02/26 12:11:31;;;;;;;4.05;3.00;;;7.30;99.90;;;;;;5087824;28;20051;-62
2023/02/26 12:14:17;;;;;;;4.38;2.88;;;7.20;99.90;;;;;;5090103;28;20075;-63
2023/02/26 12:17:14;;;;;;;7.18;3.88;;;6.90;99.90;;;;;;5089596;28;20101;-62
2023/02/26 12:20:00;;;;;;;4.70;3.80;;;6.70;99.90;;;;;;5110391;28;20047;-62
2023/02/26 12:23:01;;;;;;;4.78;3.65;;;6.50;99.90;;;;;;5093017;28;20043;-62
2023/02/26 12:25:28;;;;;;;4.35;3.17;;;6.40;99.90;;;;;;5090074;28;20479;-62
2023/02/26 12:28:36;;;;;;;8.38;4.85;;;6.10;99.90;;;;;;5088303;28;20055;-62
2023/02/26 12:31:39;;;;;;;5.10;3.70;;;5.90;99.90;;;;;;5029772;28;20091;-62
2023/02/26 12:34:34;;;;;;;6.63;4.03;;;5.80;99.90;;;;;;5046475;28;20470;-62
2023/02/26 12:37:14;;;;;;;7.70;3.17;;;5.80;99.90;;;;;;5027614;28;20053;-64
2023/02/26 12:39:56;;;;;;;13.90;7.47;;;5.70;99.90;;;;;;5025620;28;20057;-64
2023/02/26 12:42:23;;;;;;;3.80;3.40;;;5.60;99.90;;;;;;5046768;28;20095;-62
2023/02/26 12:45:23;;;;;;;8.57;3.47;;;5.40;99.90;;;;;;5062324;28;20068;-62
2023/02/26 12:47:57;;;;;;;4.43;3.10;;;5.10;99.90;;;;;;5047361;28;20045;-62
2023/02/26 12:51:00;;;;;;;5.50;3.70;;;4.90;99.90;;;;;;5045989;28;20041;-61
2023/02/26 12:53:39;;;;;;;5.70;3.63;;;4.90;99.90;;;;;;5045394;28;20573;-61
2023/02/26 12:56:18;;;;;;;6.47;3.83;;;4.90;99.90;;;;;;5044846;28;20041;-63
2023/02/26 12:59:00;;;;;;;5.85;3.30;;;4.90;99.90;;;;;;5029195;28;20052;-61
2023/02/26 13:01:36;;;;;;;4.35;3.30;;;5.20;99.90;;;;;;5043745;28;20076;-62
2023/02/26 13:04:28;;;;;;;4.22;2.88;;;5.20;99.90;;;;;;5045362;28;20105;-62
2023/02/26 13:07:33;;;;;;;4.93;3.70;;;5.20;99.90;;;;;;5076442;28;20461;-62
2023/02/26 13:10:14;;;;;;;5.70;3.65;;;6.20;99.90;;;;;;5075395;28;20298;-62
2023/02/26 13:13:15;;;;;;;7.65;4.55;;;7.30;99.90;;;;;;5087207;28;20544;-61
2023/02/26 13:15:42;;;;;;;5.13;3.80;;;7.70;99.90;;;;;;5090482;28;20050;-62
2023/02/26 13:18:32;;;;;;;3.65;3.15;;;8.90;99.90;;;;;;5093618;28;20502;-63
2023/02/26 13:21:08;;;;;;;3.85;3.33;;;10.10;99.90;;;;;;5086874;28;20115;-61
2023/02/26 13:23:46;;;;;;;4.45;3.40;;;11.90;99.90;;;;;;5088531;28;20048;-63
2023/02/26 13:26:15;;;;;;;6.55;4.85;;;11.80;96.80;;;;;;5088227;28;20047;-62
2023/02/26 13:29:05;;;;;;;8.20;6.03;;;12.00;96.20;;;;;;5087121;28;20502;-63